Time;durP1;ratioP1;P1;durP2;ratioP2;P2;SDS_P1;SDS_P2;PMS_P1;PMS_P2;Temp;Humidity;BMP_temperature;BMP_pressure;BME280_temperature;BME280_humidity;BME280_pressure;Samples;Min_cycle;Max_cycle;Signal;HPM_P1;HPM_P2
2022/07/26 00:01:23;;;;;;;36.65;26.45;;;;;;;19.94;100.00;96180.19;10411930;28;20206;-71
2022/07/26 00:06:24;;;;;;;41.05;29.63;;;;;;;19.72;100.00;96193.94;10412392;28;20185;-71
2022/07/26 00:11:25;;;;;;;46.72;32.33;;;;;;;19.71;100.00;96200.31;10411270;28;20724;-71
2022/07/26 00:16:26;;;;;;;58.28;42.17;;;;;;;19.55;100.00;96208.94;10411680;28;20222;-71
2022/07/26 00:21:27;;;;;;;44.22;32.75;;;;;;;19.54;100.00;96207.31;10411241;28;20197;-71
2022/07/26 00:26:27;;;;;;;29.77;24.15;;;;;;;19.68;100.00;96210.56;10411237;28;20199;-71
2022/07/26 00:31:28;;;;;;;15.77;11.60;;;;;;;19.42;100.00;96208.06;10411194;28;20211;-71
2022/07/26 00:36:28;;;;;;;14.60;10.30;;;;;;;19.54;100.00;96196.66;10410205;28;20729;-71
2022/07/26 00:41:28;;;;;;;12.23;8.75;;;;;;;19.52;100.00;96206.72;10411193;28;20196;-71
2022/07/26 00:46:29;;;;;;;12.13;8.57;;;;;;;19.50;100.00;96206.16;10410218;28;20180;-71
2022/07/26 00:51:29;;;;;;;10.90;8.35;;;;;;;19.48;100.00;96219.66;10410521;28;20251;-71
2022/07/26 00:56:31;;;;;;;11.98;7.93;;;;;;;19.55;100.00;96230.97;10410242;28;20315;-71
2022/07/26 01:01:31;;;;;;;10.35;7.93;;;;;;;19.50;100.00;96246.81;10409195;28;20193;-71
2022/07/26 01:06:32;;;;;;;13.07;8.15;;;;;;;19.48;100.00;96254.19;10410299;28;20720;-71
2022/07/26 01:11:32;;;;;;;11.88;7.38;;;;;;;19.58;100.00;96261.63;10409777;28;20246;-71
2022/07/26 01:16:32;;;;;;;9.02;7.38;;;;;;;19.64;100.00;96257.25;10409600;28;20282;-71
2022/07/26 01:21:33;;;;;;;10.07;7.43;;;;;;;19.70;100.00;96251.03;10409268;28;20198;-71
2022/07/26 01:26:33;;;;;;;9.75;7.72;;;;;;;19.45;100.00;96253.81;10409826;28;20214;-71
2022/07/26 01:31:34;;;;;;;13.40;7.70;;;;;;;19.34;100.00;96266.00;10409353;28;20197;-71
2022/07/26 01:36:34;;;;;;;9.07;6.57;;;;;;;19.16;100.00;96254.38;10412313;28;20362;-71
2022/07/26 01:41:34;;;;;;;9.82;6.78;;;;;;;18.99;100.00;96230.28;10417415;28;20192;-71
2022/07/26 01:46:35;;;;;;;12.95;6.55;;;;;;;19.05;100.00;96247.97;10417893;28;20188;-71
2022/07/26 01:51:35;;;;;;;8.18;6.57;;;;;;;18.89;100.00;96252.00;10417290;28;20550;-71
2022/07/26 01:56:35;;;;;;;9.63;5.97;;;;;;;18.92;100.00;96256.06;10417211;28;20679;-71
2022/07/26 02:01:36;;;;;;;8.85;6.53;;;;;;;18.95;100.00;96254.81;10416914;28;20196;-71
2022/07/26 02:06:36;;;;;;;10.98;6.60;;;;;;;19.03;100.00;96251.88;10416899;28;20338;-71
2022/07/26 02:11:36;;;;;;;13.20;6.72;;;;;;;18.89;100.00;96252.00;10416505;28;20426;-71
2022/07/26 02:16:37;;;;;;;12.75;6.60;;;;;;;18.86;100.00;96249.78;10415983;28;20221;-71
2022/07/26 02:21:37;;;;;;;11.38;5.90;;;;;;;18.85;100.00;96245.53;10416480;28;20282;-71
2022/07/26 02:26:37;;;;;;;5.85;4.95;;;;;;;18.75;100.00;96237.22;10415829;28;20192;-71
2022/07/26 02:31:38;;;;;;;8.85;5.20;;;;;;;18.81;100.00;96241.66;10415669;28;20532;-71
2022/07/26 02:36:38;;;;;;;10.82;4.63;;;;;;;18.77;100.00;96237.81;10415632;28;20788;-71
2022/07/26 02:41:39;;;;;;;10.07;4.60;;;;;;;18.76;100.00;96230.91;10415025;28;20545;-71
2022/07/26 02:46:39;;;;;;;7.60;4.57;;;;;;;18.67;100.00;96242.84;10414919;28;20551;-71
2022/07/26 02:51:39;;;;;;;11.32;4.60;;;;;;;18.53;100.00;96256.22;10414925;28;20200;-71
2022/07/26 02:56:40;;;;;;;6.72;4.13;;;;;;;18.82;100.00;96261.88;10414776;28;20228;-71
2022/07/26 03:01:40;;;;;;;7.70;3.90;;;;;;;18.77;100.00;96253.72;10414291;28;20462;-71
2022/07/26 03:06:40;;;;;;;5.85;3.35;;;;;;;18.75;100.00;96261.09;10411354;28;20220;-71
2022/07/26 03:11:41;;;;;;;11.75;4.60;;;;;;;18.73;100.00;96265.84;10410208;28;20306;-71
2022/07/26 03:16:41;;;;;;;10.25;4.40;;;;;;;18.73;100.00;96263.19;10410581;28;20209;-71
2022/07/26 03:21:41;;;;;;;11.95;6.38;;;;;;;18.57;99.31;96256.56;10410246;28;20225;-71
2022/07/26 03:26:42;;;;;;;14.05;7.97;;;;;;;18.70;98.03;96253.00;10410030;28;20299;-71
2022/07/26 03:31:42;;;;;;;16.67;8.70;;;;;;;18.62;96.73;96243.50;10410024;28;20200;-71
2022/07/26 03:36:43;;;;;;;14.38;7.68;;;;;;;18.62;97.99;96254.09;10409498;28;20236;-71
2022/07/26 03:41:43;;;;;;;14.55;7.30;;;;;;;18.57;97.91;96255.78;10409376;28;20184;-71
2022/07/26 03:46:43;;;;;;;20.35;6.50;;;;;;;18.54;98.59;96263.16;10408966;28;20185;-71
2022/07/26 03:51:44;;;;;;;10.30;5.88;;;;;;;18.51;99.30;96260.09;10409088;28;20242;-71
2022/07/26 03:56:44;;;;;;;10.90;5.40;;;;;;;18.35;100.00;96253.53;10408492;28;20307;-71
2022/07/26 04:01:45;;;;;;;6.93;4.53;;;;;;;18.38;100.00;96261.03;10409032;28;20259;-71
2022/07/26 04:06:46;;;;;;;11.23;3.58;;;;;;;18.57;100.00;96261.88;10412187;28;20187;-71
2022/07/26 04:11:47;;;;;;;6.57;3.97;;;;;;;18.57;100.00;96269.03;10411261;28;20246;-71
2022/07/26 04:16:47;;;;;;;12.23;3.90;;;;;;;18.69;100.00;96268.09;10410744;28;20224;-71
2022/07/26 04:21:48;;;;;;;10.13;4.47;;;;;;;18.66;100.00;96279.16;10411819;28;20287;-71
2022/07/26 04:26:48;;;;;;;10.85;4.93;;;;;;;18.27;100.00;96286.44;10411390;28;20195;-71
2022/07/26 04:31:48;;;;;;;8.98;4.45;;;;;;;17.98;100.00;96293.97;10411069;28;20200;-71
2022/07/26 04:36:49;;;;;;;6.97;4.85;;;;;;;17.88;100.00;96282.19;10410707;28;20312;-71
2022/07/26 04:41:49;;;;;;;13.45;5.05;;;;;;;17.92;100.00;96294.81;10411009;28;20188;-72
2022/07/26 04:46:49;;;;;;;8.20;4.60;;;;;;;18.16;100.00;96303.00;10410679;28;20189;-70
2022/07/26 04:51:50;;;;;;;9.10;4.68;;;;;;;18.04;100.00;96297.59;10410046;28;20568;-71
2022/07/26 04:56:50;;;;;;;10.00;5.20;;;;;;;18.08;100.00;96309.38;10410362;28;20762;-71
2022/07/26 05:01:50;;;;;;;8.40;4.65;;;;;;;18.28;100.00;96308.44;10410060;28;20560;-71
2022/07/26 05:06:51;;;;;;;6.57;4.63;;;;;;;18.34;100.00;96302.28;10410037;28;20287;-70
2022/07/26 05:11:51;;;;;;;10.25;4.90;;;;;;;18.51;100.00;96314.00;10409810;28;20243;-71
2022/07/26 05:16:52;;;;;;;8.73;4.93;;;;;;;18.21;100.00;96310.31;10409652;28;20232;-71
2022/07/26 05:21:52;;;;;;;8.88;5.05;;;;;;;18.36;100.00;96302.88;10409592;28;20312;-71
2022/07/26 05:26:58;;;;;;;8.95;5.38;;;;;;;18.42;100.00;96315.25;10409552;28;20193;-70
2022/07/26 05:32:00;;;;;;;11.73;5.25;;;;;;;18.51;100.00;96323.78;10372555;28;20201;-71
2022/07/26 05:37:00;;;;;;;8.88;5.25;;;;;;;18.35;100.00;96320.63;10394357;28;20216;-71
2022/07/26 05:42:00;;;;;;;12.73;5.45;;;;;;;18.42;100.00;96333.03;10373222;28;20185;-71
2022/07/26 05:47:01;;;;;;;8.73;5.75;;;;;;;18.50;100.00;96328.28;10367983;28;20201;-71
2022/07/26 05:52:02;;;;;;;10.50;4.75;;;;;;;18.64;100.00;96331.63;10367985;28;20186;-71
2022/07/26 05:57:02;;;;;;;11.65;5.15;;;;;;;18.52;100.00;96334.16;10367756;28;20225;-71
2022/07/26 06:02:03;;;;;;;14.70;4.60;;;;;;;18.83;100.00;96331.66;10349738;28;20220;-71
2022/07/26 06:07:03;;;;;;;7.88;4.18;;;;;;;18.59;100.00;96346.56;10366939;28;20266;-71
2022/07/26 06:12:04;;;;;;;6.72;3.85;;;;;;;18.74;98.57;96336.44;10367395;28;20237;-70
2022/07/26 06:17:04;;;;;;;9.27;3.55;;;;;;;19.35;90.45;96318.09;10368070;28;20217;-70
2022/07/26 06:22:04;;;;;;;7.28;2.92;;;;;;;19.28;87.41;96320.00;10369380;28;20228;-71
2022/07/26 06:27:05;;;;;;;3.58;2.55;;;;;;;19.64;82.46;96297.13;10375564;28;20189;-70
2022/07/26 06:32:05;;;;;;;6.55;2.00;;;;;;;19.70;77.50;96259.81;10374489;28;20661;-71
2022/07/26 06:37:06;;;;;;;4.13;1.85;;;;;;;19.71;76.12;96269.41;10374571;28;20866;-70
2022/07/26 06:42:06;;;;;;;3.92;2.40;;;;;;;19.95;77.36;96296.09;10374742;28;20661;-70
2022/07/26 06:47:06;;;;;;;5.70;2.28;;;;;;;20.46;73.92;96259.34;10373908;28;20764;-70
2022/07/26 06:52:07;;;;;;;6.03;2.72;;;;;;;20.21;73.66;96273.63;10371771;28;20189;-70
2022/07/26 06:57:07;;;;;;;6.10;2.35;;;;;;;19.87;71.79;96237.94;10436941;28;20234;-71
2022/07/26 07:02:07;;;;;;;8.85;1.90;;;;;;;20.67;67.21;96197.56;10452550;28;20207;-70
2022/07/26 07:07:08;;;;;;;5.65;1.80;;;;;;;21.06;66.08;96201.53;10414527;28;20203;-71
2022/07/26 07:12:08;;;;;;;6.22;1.90;;;;;;;20.04;72.10;96275.34;10412682;28;20244;-70
2022/07/26 07:17:09;;;;;;;6.88;2.00;;;;;;;20.47;70.38;96255.63;10412453;28;20224;-71
2022/07/26 07:22:10;;;;;;;6.88;2.13;;;;;;;20.62;68.90;96250.66;10411702;28;20197;-70
2022/07/26 07:27:10;;;;;;;5.90;2.78;;;;;;;21.28;69.55;96269.13;10413030;28;20195;-70
2022/07/26 07:32:11;;;;;;;3.72;2.13;;;;;;;22.04;63.57;96172.16;10411161;28;20193;-70
2022/07/26 07:37:11;;;;;;;7.47;2.10;;;;;;;20.98;66.16;96206.19;10410340;28;20224;-70
2022/07/26 07:42:12;;;;;;;5.38;1.70;;;;;;;21.55;64.20;96199.31;10395307;28;20599;-70
2022/07/26 07:47:13;;;;;;;4.28;1.70;;;;;;;22.26;60.11;96137.50;10387242;28;20189;-70
2022/07/26 07:52:13;;;;;;;5.72;1.35;;;;;;;22.44;58.34;96110.56;10387263;28;20286;-70
2022/07/26 07:57:13;;;;;;;6.80;1.55;;;;;;;22.55;58.23;96121.38;10389961;28;20216;-70
2022/07/26 08:02:14;;;;;;;5.43;1.50;;;;;;;22.44;58.79;96139.13;10385627;28;20196;-70
2022/07/26 08:07:15;;;;;;;4.90;1.55;;;;;;;21.96;58.72;96125.34;10387943;28;20253;-70
2022/07/26 08:12:16;;;;;;;5.00;1.60;;;;;;;22.19;58.85;96144.88;10408719;28;20679;-70
2022/07/26 08:17:16;;;;;;;3.90;1.35;;;;;;;21.78;59.77;96163.72;10409644;28;20221;-70
2022/07/26 08:22:19;;;;;;;3.95;1.52;;;;;;;22.03;58.73;96141.19;10409621;28;20200;-70
2022/07/26 08:27:19;;;;;;;7.38;1.50;;;;;;;22.41;59.03;96172.44;10410515;28;20195;-67
2022/07/26 08:32:20;;;;;;;3.35;1.17;;;;;;;21.60;59.53;96166.63;10407927;28;20201;-71
2022/07/26 08:37:20;;;;;;;9.30;1.50;;;;;;;21.20;60.18;96171.72;10408036;28;20216;-71
2022/07/26 08:42:21;;;;;;;12.20;1.60;;;;;;;20.84;62.05;96213.63;10390317;28;20283;-71
2022/07/26 08:47:22;;;;;;;8.48;1.80;;;;;;;22.47;59.21;96178.69;10408870;28;20188;-71
2022/07/26 08:52:22;;;;;;;4.18;1.48;;;;;;;22.92;56.04;96126.09;10407833;28;20196;-71
2022/07/26 08:57:22;;;;;;;3.55;1.23;;;;;;;23.81;55.33;96148.13;10391005;28;20640;-71
2022/07/26 09:02:41;;;;;;;4.97;1.30;;;;;;;23.30;53.20;96095.81;10407773;28;20200;-71
2022/07/26 09:07:44;;;;;;;8.18;1.70;;;;;;;24.02;54.64;96149.13;10408404;28;20281;-71
2022/07/26 09:12:44;;;;;;;5.07;1.17;;;;;;;24.51;50.08;96055.19;10407240;28;20228;-71
2022/07/26 09:17:48;;;;;;;4.90;1.50;;;;;;;24.49;51.30;96086.78;10408604;28;20226;-71
2022/07/26 09:22:57;;;;;;;1.75;1.20;;;;;;;23.74;50.74;96059.28;10408929;28;20280;-71
2022/07/26 09:27:59;;;;;;;5.47;1.65;;;;;;;23.29;51.84;96096.88;10404987;28;20339;-74
2022/07/26 09:33:04;;;;;;;3.90;1.40;;;;;;;22.99;53.16;96124.06;10407903;28;20216;-74
2022/07/26 09:38:13;;;;;;;2.97;1.30;;;;;;;22.35;55.59;96160.09;10388818;28;20236;-74
2022/07/26 09:43:15;;;;;;;4.85;1.52;;;;;;;22.19;57.42;96191.06;10406820;28;20209;-74
2022/07/26 09:48:26;;;;;;;3.90;1.20;;;;;;;22.61;54.37;96144.44;10389908;28;20667;-75
2022/07/26 09:53:26;;;;;;;4.78;1.45;;;;;;;23.06;53.71;96129.19;10407544;28;20299;-75
2022/07/26 09:58:27;;;;;;;2.22;1.23;;;;;;;21.66;54.40;96101.69;10410978;28;20231;-74
2022/07/26 10:03:29;;;;;;;6.22;1.60;;;;;;;23.11;55.52;96182.75;10415110;28;20189;-74
2022/07/26 10:08:30;;;;;;;3.42;1.42;;;;;;;24.74;50.31;96093.34;10414687;28;20196;-74
2022/07/26 10:13:30;;;;;;;5.47;1.30;;;;;;;24.62;48.57;96063.31;10413886;28;20236;-74
2022/07/26 10:18:37;;;;;;;8.48;1.60;;;;;;;24.01;48.41;96032.44;10395982;28;20244;-74
2022/07/26 10:23:43;;;;;;;8.93;1.20;;;;;;;23.76;50.82;96099.94;10415031;28;20204;-74
2022/07/26 10:28:43;;;;;;;4.68;1.30;;;;;;;23.71;50.87;96098.03;10398860;28;20205;-75
2022/07/26 10:33:46;;;;;;;5.35;1.30;;;;;;;25.80;47.30;96093.00;10412366;28;20358;-74
2022/07/26 10:39:00;;;;;;;2.38;1.00;;;;;;;26.53;43.34;96000.50;10414929;28;20275;-73
2022/07/26 10:44:15;;;;;;;3.72;0.98;;;;;;;27.12;42.27;96014.13;10402671;28;20212;-75
2022/07/26 10:49:17;;;;;;;3.38;1.20;;;;;;;25.61;46.16;96047.94;10374638;28;20256;-74
2022/07/26 10:54:17;;;;;;;4.13;1.40;;;;;;;25.53;45.89;96029.72;10408724;28;20196;-73
2022/07/26 10:59:30;;;;;;;3.83;1.13;;;;;;;26.64;44.49;96031.59;10404521;28;20643;-75
2022/07/26 11:04:30;;;;;;;3.88;1.25;;;;;;;26.70;44.31;96043.16;10408420;28;20691;-74
2022/07/26 11:09:34;;;;;;;4.18;1.50;;;;;;;25.90;44.97;96017.06;10412647;28;20234;-75
2022/07/26 11:14:34;;;;;;;1.92;0.90;;;;;;;25.66;45.94;96059.75;10397245;28;20237;-75
2022/07/26 11:19:39;;;;;;;2.27;0.90;;;;;;;25.89;45.96;96064.53;10385128;28;20594;-74
2022/07/26 11:24:39;;;;;;;2.78;1.20;;;;;;;26.81;42.91;96015.13;10413729;28;20506;-74
2022/07/26 11:29:40;;;;;;;3.00;1.27;;;;;;;25.85;44.74;96031.28;10398368;28;20196;-74
2022/07/26 11:34:41;;;;;;;4.55;1.20;;;;;;;27.73;40.92;95985.94;10392279;28;20212;-74
2022/07/26 11:39:41;;;;;;;1.70;0.90;;;;;;;28.97;39.56;95985.28;10391695;28;20221;-75
2022/07/26 11:44:43;;;;;;;3.78;0.70;;;;;;;30.09;36.53;95940.50;10401461;28;20193;-75
2022/07/26 11:49:43;;;;;;;1.95;0.82;;;;;;;30.68;34.25;95911.69;10413071;28;20729;-74
2022/07/26 11:54:48;;;;;;;2.57;0.73;;;;;;;28.76;35.80;95861.59;10415001;28;20220;-75
2022/07/26 11:59:49;;;;;;;2.45;1.35;;;;;;;30.42;33.89;95884.44;10462288;28;20501;-75
2022/07/26 12:05:17;;;;;;;4.13;1.00;;;;;;;28.95;36.88;95938.94;10420339;28;20184;-74
2022/07/26 12:10:17;;;;;;;8.90;1.25;;;;;;;28.93;36.43;95903.38;10396265;28;20224;-74
2022/07/26 12:15:17;;;;;;;5.80;0.98;;;;;;;29.33;35.99;95911.94;10393613;28;20196;-74
2022/07/26 12:20:18;;;;;;;2.28;0.88;;;;;;;28.29;37.78;95923.41;10409330;28;20327;-74
2022/07/26 12:25:28;;;;;;;2.78;0.77;;;;;;;30.28;33.96;95891.72;10393844;28;20203;-74
2022/07/26 12:30:33;;;;;;;3.63;0.90;;;;;;;29.99;34.95;95922.59;10410886;28;20251;-74
2022/07/26 12:35:34;;;;;;;1.58;0.63;;;;;;;28.91;36.12;95884.00;10401308;28;20688;-74
2022/07/26 12:40:41;;;;;;;0.93;0.65;;;;;;;27.82;37.00;95849.66;10370272;28;20213;-74
2022/07/26 12:45:42;;;;;;;1.67;0.75;;;;;;;28.57;35.58;95856.19;10387788;28;20561;-74
2022/07/26 12:50:42;;;;;;;1.77;0.90;;;;;;;29.64;35.99;95925.66;10389239;28;20189;-75
2022/07/26 12:55:43;;;;;;;5.77;1.00;;;;;;;29.53;35.75;95921.56;10384079;28;20177;-74
2022/07/26 13:00:43;;;;;;;5.03;0.90;;;;;;;29.69;35.06;95912.06;10410067;28;20530;-75
2022/07/26 13:05:43;;;;;;;5.25;0.88;;;;;;;29.99;35.14;95904.50;10393243;28;20570;-74
2022/07/26 13:10:44;;;;;;;5.00;0.90;;;;;;;32.10;32.08;95906.75;10407363;28;20259;-75
2022/07/26 13:15:45;;;;;;;1.50;0.70;;;;;;;32.72;31.04;95876.72;10407856;28;20453;-74
2022/07/26 13:20:45;;;;;;;1.58;0.80;;;;;;;32.81;31.43;95894.91;10409395;28;20447;-75
2022/07/26 13:25:46;;;;;;;1.40;0.80;;;;;;;32.09;30.87;95843.63;10410178;28;20208;-75
2022/07/26 13:30:47;;;;;;;2.40;0.90;;;;;;;31.23;31.74;95845.72;10405203;28;20451;-74
2022/07/26 13:35:48;;;;;;;5.10;0.80;;;;;;;29.02;34.48;95847.69;10396156;28;20212;-75
2022/07/26 13:40:49;;;;;;;1.92;0.90;;;;;;;28.21;36.14;95893.59;10411743;28;20283;-75
2022/07/26 13:45:49;;;;;;;2.28;0.65;;;;;;;29.65;35.43;95916.47;10368899;28;20197;-75
2022/07/26 13:50:50;;;;;;;1.30;0.90;;;;;;;30.10;34.40;95929.38;10375735;28;20185;-75
2022/07/26 13:55:50;;;;;;;3.70;0.70;;;;;;;29.44;35.05;95926.81;10375187;28;20559;-74
2022/07/26 14:00:50;;;;;;;2.05;0.60;;;;;;;29.90;33.50;95890.09;10368621;28;20200;-75
2022/07/26 14:05:51;;;;;;;5.43;0.80;;;;;;;30.33;34.53;95946.47;10398738;28;20271;-75
2022/07/26 14:10:51;;;;;;;1.97;0.77;;;;;;;30.68;34.81;95973.88;10415416;28;20475;-75
2022/07/26 14:15:51;;;;;;;6.03;1.17;;;;;;;29.27;37.69;95991.34;10414057;28;20443;-75
2022/07/26 14:20:52;;;;;;;3.63;0.90;;;;;;;29.25;37.73;96007.84;10415695;28;20451;-75
2022/07/26 14:25:53;;;;;;;8.30;1.40;;;;;;;30.87;36.40;96038.63;10415432;28;20278;-76
2022/07/26 14:30:53;;;;;;;4.90;0.87;;;;;;;32.39;34.41;96052.59;10415390;28;20291;-75
2022/07/26 14:35:53;;;;;;;4.43;0.75;;;;;;;34.05;31.78;96024.72;10414559;28;20455;-75
2022/07/26 14:40:54;;;;;;;5.57;0.90;;;;;;;33.05;32.56;95973.91;10414941;28;20215;-75
2022/07/26 14:45:55;;;;;;;0.80;0.68;;;;;;;30.38;34.82;95945.56;10394776;28;20451;-76
2022/07/26 14:50:55;;;;;;;1.87;0.87;;;;;;;28.68;38.03;95974.66;10375230;28;20185;-75
2022/07/26 14:55:56;;;;;;;1.75;0.80;;;;;;;27.59;39.00;95981.22;10397798;28;20451;-74
2022/07/26 15:00:56;;;;;;;1.70;1.00;;;;;;;27.42;39.96;96004.28;10409588;28;20208;-75
2022/07/26 15:05:57;;;;;;;1.70;1.00;;;;;;;27.29;39.74;96013.75;10411292;28;20253;-76
2022/07/26 15:10:57;;;;;;;1.27;0.87;;;;;;;27.04;40.21;96024.44;10381613;28;20229;-74
2022/07/26 15:15:57;;;;;;;5.95;0.88;;;;;;;26.60;42.42;96073.53;10381286;28;20513;-75
2022/07/26 15:20:58;;;;;;;1.53;0.90;;;;;;;26.46;42.83;96094.81;10374232;28;20334;-74
2022/07/26 15:25:58;;;;;;;3.30;0.95;;;;;;;27.27;41.27;96083.94;10373986;28;20436;-75
2022/07/26 15:30:58;;;;;;;2.30;0.90;;;;;;;28.96;39.10;96088.84;10409413;28;20242;-76
2022/07/26 15:35:59;;;;;;;5.03;1.10;;;;;;;29.46;37.79;96067.66;10421335;28;20451;-75
2022/07/26 15:40:59;;;;;;;2.87;1.03;;;;;;;29.33;38.48;96073.81;10462872;28;20439;-76
2022/07/26 15:45:59;;;;;;;2.50;1.20;;;;;;;27.71;41.33;96093.88;10398263;28;20431;-75
2022/07/26 15:51:00;;;;;;;3.53;1.47;;;;;;;25.72;45.54;96147.22;10417508;28;20192;-75
2022/07/26 15:56:01;;;;;;;2.80;1.20;;;;;;;25.52;46.08;96148.78;10410477;28;20435;-76
2022/07/26 16:01:03;;;;;;;1.60;1.30;;;;;;;25.27;46.67;96171.78;10411674;28;20192;-74
2022/07/26 16:06:03;;;;;;;3.13;1.50;;;;;;;25.18;47.31;96170.69;10414306;28;20196;-74
2022/07/26 16:11:03;;;;;;;1.77;1.30;;;;;;;25.44;46.16;96158.16;10389038;28;20237;-74
2022/07/26 16:16:04;;;;;;;4.35;1.60;;;;;;;25.43;46.40;96166.47;10369791;28;20216;-75
2022/07/26 16:21:05;;;;;;;5.00;1.50;;;;;;;24.67;47.35;96171.28;10368978;28;20239;-76
2022/07/26 16:26:07;;;;;;;4.55;1.45;;;;;;;24.61;47.97;96190.22;10352797;28;20196;-76
2022/07/26 16:31:07;;;;;;;2.28;1.70;;;;;;;23.61;52.36;96261.88;10351233;28;20276;-76
2022/07/26 16:36:08;;;;;;;6.50;1.95;;;;;;;23.88;52.22;96284.41;10328071;28;20218;-75
2022/07/26 16:41:09;;;;;;;6.13;2.15;;;;;;;23.65;54.33;96329.06;10346163;28;20593;-75
2022/07/26 16:46:09;;;;;;;11.05;2.50;;;;;;;23.33;55.33;96338.53;10367915;28;20181;-75
2022/07/26 16:51:12;;;;;;;5.07;2.35;;;;;;;23.78;54.57;96333.19;10370313;28;20201;-76
2022/07/26 16:56:12;;;;;;;4.30;1.98;;;;;;;23.62;54.69;96319.66;10369285;28;20271;-75
2022/07/26 17:01:14;;;;;;;3.70;1.92;;;;;;;24.25;53.17;96305.88;10352268;28;20609;-76
2022/07/26 17:06:14;;;;;;;5.75;1.92;;;;;;;24.42;52.54;96303.09;10369274;28;20679;-75
2022/07/26 17:11:15;;;;;;;8.10;2.47;;;;;;;23.08;56.69;96354.22;10368831;28;20337;-75
2022/07/26 17:16:15;;;;;;;6.82;2.72;;;;;;;22.77;57.57;96362.56;10368257;28;20229;-75
2022/07/26 17:21:15;;;;;;;9.60;2.42;;;;;;;22.35;58.99;96386.94;10368469;28;20193;-75
2022/07/26 17:26:17;;;;;;;4.28;2.03;;;;;;;22.47;59.74;96412.78;10368294;28;20665;-75
2022/07/26 17:31:18;;;;;;;7.05;2.35;;;;;;;22.24;60.58;96419.81;10367863;28;20185;-75
2022/07/26 17:36:23;;;;;;;8.75;2.53;;;;;;;22.22;61.38;96445.91;10367836;28;20659;-75
2022/07/26 17:41:24;;;;;;;6.03;2.40;;;;;;;22.03;62.22;96450.59;10367600;28;20244;-76
2022/07/26 17:46:25;;;;;;;6.43;2.25;;;;;;;21.73;62.71;96451.59;10366101;28;20193;-75
2022/07/26 17:51:25;;;;;;;8.20;2.50;;;;;;;21.30;64.04;96450.91;10367710;28;20283;-76
2022/07/26 17:56:26;;;;;;;6.30;2.53;;;;;;;21.14;65.02;96457.69;10367165;28;20213;-75
2022/07/26 18:01:27;;;;;;;4.07;2.65;;;;;;;21.33;64.76;96453.09;10366210;28;20197;-75
2022/07/26 18:06:27;;;;;;;6.25;2.25;;;;;;;21.30;64.56;96439.41;10366940;28;20566;-75
2022/07/26 18:11:27;;;;;;;5.25;2.67;;;;;;;21.15;64.76;96439.88;10379702;28;20228;-75
2022/07/26 18:16:28;;;;;;;6.50;2.70;;;;;;;20.80;65.96;96448.63;10408031;28;20216;-75
2022/07/26 18:21:28;;;;;;;5.07;2.58;;;;;;;20.67;66.63;96455.78;10415006;28;20207;-75
2022/07/26 18:26:29;;;;;;;9.07;2.70;;;;;;;20.70;66.96;96453.69;10415204;28;20189;-75
2022/07/26 18:31:29;;;;;;;4.70;2.55;;;;;;;20.69;66.33;96434.25;10415254;28;20196;-75
2022/07/26 18:36:30;;;;;;;11.23;2.85;;;;;;;20.57;66.01;96428.06;10414851;28;20766;-75
2022/07/26 18:41:31;;;;;;;4.95;2.33;;;;;;;20.59;65.90;96428.63;10413347;28;20720;-75
2022/07/26 18:46:31;;;;;;;7.78;2.17;;;;;;;20.38;67.27;96448.56;10414849;28;20196;-74
2022/07/26 18:51:32;;;;;;;6.65;2.13;;;;;;;20.16;68.32;96462.34;10414298;28;20199;-75
2022/07/26 18:56:32;;;;;;;9.23;2.53;;;;;;;20.07;68.97;96474.31;10414033;28;20705;-75
2022/07/26 19:01:33;;;;;;;4.75;2.55;;;;;;;20.01;69.10;96476.00;10413861;28;20950;-75
2022/07/26 19:06:34;;;;;;;4.82;2.50;;;;;;;19.76;70.29;96489.34;10413559;28;20578;-75
2022/07/26 19:11:34;;;;;;;6.97;2.28;;;;;;;19.74;70.91;96492.25;10413549;28;20229;-75
2022/07/26 19:16:35;;;;;;;8.25;2.65;;;;;;;19.55;71.87;96499.34;10413470;28;20216;-75
2022/07/26 19:21:35;;;;;;;3.65;2.90;;;;;;;19.42;72.18;96496.84;10413086;28;20534;-76
2022/07/26 19:26:35;;;;;;;6.38;2.60;;;;;;;19.39;72.15;96507.91;10413599;28;20843;-75
2022/07/26 19:31:38;;;;;;;7.00;2.97;;;;;;;19.31;73.00;96506.34;10413653;28;20300;-76
2022/07/26 19:36:39;;;;;;;6.80;3.22;;;;;;;19.06;73.95;96512.41;10413386;28;20233;-75
2022/07/26 19:41:40;;;;;;;6.47;2.70;;;;;;;19.00;74.38;96507.16;10413279;28;20232;-75
2022/07/26 19:46:40;;;;;;;5.30;2.30;;;;;;;18.99;74.71;96508.19;10412960;28;20188;-75
2022/07/26 19:51:41;;;;;;;7.22;2.78;;;;;;;18.87;75.22;96519.50;10411420;28;20250;-75
2022/07/26 19:56:41;;;;;;;4.15;2.60;;;;;;;18.78;75.95;96528.72;10394838;28;20216;-75
2022/07/26 20:01:42;;;;;;;8.68;2.97;;;;;;;18.63;77.34;96539.59;10412216;28;20525;-75
2022/07/26 20:06:42;;;;;;;6.05;2.72;;;;;;;18.59;77.79;96538.41;10411493;28;20188;-75
2022/07/26 20:11:49;;;;;;;5.75;2.55;;;;;;;18.49;78.61;96546.81;10412332;28;20236;-75
2022/07/26 20:16:50;;;;;;;4.05;2.58;;;;;;;18.47;78.18;96543.56;10394728;28;20283;-75
2022/07/26 20:21:50;;;;;;;5.05;2.70;;;;;;;18.34;79.24;96546.25;10411604;28;20196;-75
2022/07/26 20:26:51;;;;;;;3.08;2.10;;;;;;;18.26;79.87;96559.75;10411438;28;20211;-76
2022/07/26 20:31:51;;;;;;;3.53;2.50;;;;;;;18.32;79.89;96561.56;10409749;28;20250;-76
2022/07/26 20:36:52;;;;;;;6.25;3.10;;;;;;;18.08;80.79;96560.41;10400278;28;20319;-75
2022/07/26 20:41:53;;;;;;;3.97;2.80;;;;;;;17.90;81.88;96566.34;10393151;28;20219;-75
2022/07/26 20:46:53;;;;;;;9.30;2.65;;;;;;;17.69;84.30;96576.16;10388249;28;20189;-76
2022/07/26 20:51:54;;;;;;;5.43;2.88;;;;;;;17.70;84.65;96577.75;10386167;28;20254;-75
2022/07/26 20:56:54;;;;;;;5.95;2.85;;;;;;;17.64;84.84;96574.13;10376913;28;20220;-76
2022/07/26 21:01:58;;;;;;;6.38;2.67;;;;;;;17.70;84.53;96569.81;10368723;28;20276;-76
2022/07/26 21:06:58;;;;;;;7.38;2.85;;;;;;;17.72;84.48;96567.78;10368441;28;20244;-75
2022/07/26 21:12:02;;;;;;;4.07;2.78;;;;;;;17.81;84.49;96560.44;10369371;28;20310;-76
2022/07/26 21:17:02;;;;;;;2.95;2.20;;;;;;;17.64;85.16;96567.97;10368791;28;20231;-75
2022/07/26 21:22:02;;;;;;;3.13;2.55;;;;;;;17.54;87.40;96583.50;10369389;28;20679;-75
2022/07/26 21:27:03;;;;;;;9.20;2.70;;;;;;;17.51;88.03;96578.59;10368912;28;20197;-75
2022/07/26 21:32:04;;;;;;;6.07;2.38;;;;;;;17.46;88.53;96580.00;10360364;28;20193;-75
2022/07/26 21:37:05;;;;;;;5.30;2.70;;;;;;;17.48;88.07;96588.56;10368810;28;20696;-76
2022/07/26 21:42:05;;;;;;;6.97;2.72;;;;;;;17.54;88.40;96586.94;10368555;28;20189;-75
2022/07/26 21:47:05;;;;;;;5.20;2.70;;;;;;;17.38;90.21;96592.63;10368670;28;20185;-75
2022/07/26 21:52:06;;;;;;;4.80;2.58;;;;;;;17.55;89.70;96590.41;10369023;28;20684;-75
2022/07/26 21:57:06;;;;;;;5.38;2.90;;;;;;;17.31;90.42;96587.34;10376692;28;20668;-74
2022/07/26 22:02:06;;;;;;;5.15;3.17;;;;;;;17.18;91.27;96600.56;10376483;28;20569;-75
2022/07/26 22:07:07;;;;;;;5.47;3.00;;;;;;;17.32;91.33;96602.22;10375662;28;20200;-75
2022/07/26 22:12:08;;;;;;;3.33;2.75;;;;;;;17.33;90.50;96605.66;10375863;28;20229;-75
2022/07/26 22:17:08;;;;;;;4.65;2.60;;;;;;;17.26;91.72;96601.19;10375474;28;20223;-74
2022/07/26 22:22:09;;;;;;;2.85;2.05;;;;;;;17.20;91.37;96599.34;10375543;28;20607;-75
2022/07/26 22:27:09;;;;;;;4.40;2.20;;;;;;;17.27;91.48;96594.06;10375420;28;20685;-75
2022/07/26 22:32:09;;;;;;;4.38;2.60;;;;;;;17.27;91.90;96594.88;10374561;28;20284;-75
2022/07/26 22:37:10;;;;;;;5.72;2.85;;;;;;;17.29;92.48;96598.13;10403489;28;20269;-75
2022/07/26 22:42:10;;;;;;;2.28;2.00;;;;;;;17.26;91.24;96592.44;10410677;28;20193;-75
2022/07/26 22:47:10;;;;;;;4.63;2.20;;;;;;;17.36;90.61;96598.13;10376183;28;20201;-76
2022/07/26 22:52:11;;;;;;;4.18;2.22;;;;;;;17.26;90.77;96592.44;10375409;28;20194;-75
2022/07/26 22:57:11;;;;;;;3.28;2.20;;;;;;;17.18;91.52;96597.91;10374570;28;20751;-76
2022/07/26 23:02:11;;;;;;;4.35;2.03;;;;;;;17.29;91.42;96597.34;10374810;28;20208;-76
2022/07/26 23:07:12;;;;;;;3.40;1.67;;;;;;;16.98;91.48;96597.88;10373753;28;20673;-74
2022/07/26 23:12:12;;;;;;;2.67;1.80;;;;;;;16.86;93.57;96601.09;10374006;28;20800;-75